AFL160 UUEE-ULMM
Flight info
| Callsign | AFL160 |
|---|---|
| Flight time | 2h 7m |
| Altitude | 37000 |
| Route | RILPO3H RILPO DCT GIMDA N156 UPEMA T825 ADLIN/K0832F380 T747 MOVIT DCT PILAN T693 ASGOR ASGO2L |
| Aircraft | A320/M-SDE3FGHIRWY/LB1 |
Departure
| Time | 2026-05-06 05:38 |
|---|---|
| Airport | Sheremetyevo International Airport (UUEE) |
Arrival
| Time | 2026-05-06 07:45 |
|---|---|
| Airport | Emperor Nicholas II Murmansk Airport (ULMM) |
| Time | Latitude | Longitude | Altitude | Speed | Heading |
|---|---|---|---|---|---|
| 2026-05-06 05:10 | 55.97784 | 37.41311 | 639 ft | 0 kts | 256° |
| 2026-05-06 05:25 | 55.97791 | 37.41352 | 644 ft | 4 kts | 244° |
| 2026-05-06 05:26 | 55.97806 | 37.41391 | 640 ft | 4 kts | 218° |
| 2026-05-06 05:26 | 55.97829 | 37.41410 | 640 ft | 4 kts | 173° |
| 2026-05-06 05:26 | 55.97836 | 37.41408 | 647 ft | 0 kts | 165° |
| 2026-05-06 05:29 | 55.97833 | 37.41409 | 639 ft | 2 kts | 165° |
| 2026-05-06 05:29 | 55.97794 | 37.41428 | 640 ft | 7 kts | 165° |
| 2026-05-06 05:29 | 55.97749 | 37.41450 | 639 ft | 6 kts | 165° |
| 2026-05-06 05:29 | 55.97696 | 37.41476 | 639 ft | 8 kts | 160° |
| 2026-05-06 05:30 | 55.97673 | 37.41540 | 645 ft | 6 kts | 109° |
| 2026-05-06 05:30 | 55.97653 | 37.41589 | 641 ft | 4 kts | 141° |
| 2026-05-06 05:30 | 55.97631 | 37.41609 | 639 ft | 3 kts | 146° |
| 2026-05-06 05:30 | 55.97614 | 37.41643 | 639 ft | 6 kts | 118° |
| 2026-05-06 05:31 | 55.97619 | 37.41747 | 645 ft | 8 kts | 75° |
| 2026-05-06 05:31 | 55.97633 | 37.41841 | 648 ft | 7 kts | 74° |
| 2026-05-06 05:31 | 55.97650 | 37.41954 | 643 ft | 12 kts | 75° |
| 2026-05-06 05:31 | 55.97675 | 37.42117 | 639 ft | 14 kts | 76° |
| 2026-05-06 05:32 | 55.97697 | 37.42271 | 641 ft | 12 kts | 75° |
| 2026-05-06 05:32 | 55.97725 | 37.42453 | 645 ft | 19 kts | 75° |
| 2026-05-06 05:32 | 55.97765 | 37.42720 | 643 ft | 23 kts | 74° |
| 2026-05-06 05:32 | 55.97807 | 37.43004 | 643 ft | 24 kts | 75° |
| 2026-05-06 05:33 | 55.97849 | 37.43284 | 644 ft | 23 kts | 74° |
| 2026-05-06 05:33 | 55.97890 | 37.43557 | 639 ft | 23 kts | 75° |
| 2026-05-06 05:33 | 55.97929 | 37.43823 | 639 ft | 21 kts | 75° |
| 2026-05-06 05:33 | 55.97947 | 37.43976 | 639 ft | 10 kts | 96° |
| 2026-05-06 05:34 | 55.97915 | 37.44038 | 639 ft | 1 kts | 163° |
| 2026-05-06 05:34 | 55.97912 | 37.44040 | 639 ft | 3 kts | 163° |
| 2026-05-06 05:34 | 55.97859 | 37.44065 | 640 ft | 13 kts | 165° |
| 2026-05-06 05:35 | 55.97739 | 37.44121 | 638 ft | 19 kts | 165° |
| 2026-05-06 05:35 | 55.97676 | 37.44151 | 639 ft | 6 kts | 165° |
| 2026-05-06 05:35 | 55.97671 | 37.44153 | 640 ft | 0 kts | 165° |
| 2026-05-06 05:35 | 55.97670 | 37.44154 | 639 ft | 1 kts | 165° |
| 2026-05-06 05:36 | 55.97638 | 37.44169 | 639 ft | 10 kts | 165° |
| 2026-05-06 05:36 | 55.97562 | 37.44196 | 640 ft | 10 kts | 195° |
| 2026-05-06 05:36 | 55.97538 | 37.44135 | 642 ft | 3 kts | 253° |
| 2026-05-06 05:37 | 55.97536 | 37.44123 | 640 ft | 6 kts | 254° |
| 2026-05-06 05:37 | 55.97474 | 37.43704 | 639 ft | 71 kts | 255° |
| 2026-05-06 05:37 | 55.97295 | 37.42485 | 640 ft | 128 kts | 255° |
| 2026-05-06 05:37 | 55.97028 | 37.40690 | 690 ft | 165 kts | 255° |
| 2026-05-06 05:38 | 55.96728 | 37.38700 | 1307 ft | 167 kts | 255° |
| 2026-05-06 05:38 | 55.96422 | 37.36676 | 2045 ft | 169 kts | 254° |
| 2026-05-06 05:38 | 55.96111 | 37.34640 | 2781 ft | 175 kts | 255° |
| 2026-05-06 05:38 | 55.95778 | 37.32430 | 3114 ft | 200 kts | 255° |
| 2026-05-06 05:39 | 55.95401 | 37.29932 | 3486 ft | 223 kts | 254° |
| 2026-05-06 05:39 | 55.94961 | 37.27130 | 4022 ft | 243 kts | 254° |
| 2026-05-06 05:39 | 55.94508 | 37.24199 | 4949 ft | 247 kts | 255° |
| 2026-05-06 05:39 | 55.94065 | 37.21222 | 5921 ft | 248 kts | 255° |
| 2026-05-06 05:40 | 55.93624 | 37.18239 | 6869 ft | 249 kts | 255° |
| 2026-05-06 05:40 | 55.93180 | 37.15249 | 7685 ft | 250 kts | 255° |
| 2026-05-06 05:40 | 55.92737 | 37.12281 | 8533 ft | 253 kts | 255° |
| 2026-05-06 05:40 | 55.92277 | 37.09226 | 8883 ft | 255 kts | 255° |
| 2026-05-06 05:41 | 55.91854 | 37.06160 | 8980 ft | 255 kts | 261° |
| 2026-05-06 05:41 | 55.91885 | 37.02991 | 8997 ft | 257 kts | 278° |
| 2026-05-06 05:41 | 55.92499 | 36.99972 | 9001 ft | 263 kts | 295° |
| 2026-05-06 05:41 | 55.93647 | 36.97442 | 8996 ft | 272 kts | 313° |
| 2026-05-06 05:42 | 55.95200 | 36.95438 | 8995 ft | 276 kts | 319° |
| 2026-05-06 05:42 | 55.96770 | 36.93552 | 8996 ft | 279 kts | 324° |
| 2026-05-06 05:42 | 55.98629 | 36.92374 | 8994 ft | 291 kts | 345° |
| 2026-05-06 05:42 | 56.00681 | 36.92474 | 8994 ft | 303 kts | 8° |
| 2026-05-06 05:43 | 56.02636 | 36.93978 | 9001 ft | 312 kts | 28° |
| 2026-05-06 05:43 | 56.04459 | 36.96106 | 8996 ft | 313 kts | 29° |
| 2026-05-06 05:43 | 56.06284 | 36.98254 | 8997 ft | 314 kts | 29° |
| 2026-05-06 05:43 | 56.08110 | 37.00400 | 8996 ft | 314 kts | 29° |
| 2026-05-06 05:44 | 56.09846 | 37.02688 | 8994 ft | 317 kts | 39° |
| 2026-05-06 05:44 | 56.11321 | 37.05656 | 8993 ft | 321 kts | 53° |
| 2026-05-06 05:44 | 56.12402 | 37.09152 | 8992 ft | 322 kts | 68° |
| 2026-05-06 05:44 | 56.13048 | 37.12927 | 8995 ft | 322 kts | 77° |
| 2026-05-06 05:45 | 56.13597 | 37.16826 | 8995 ft | 322 kts | 77° |
| 2026-05-06 05:45 | 56.14148 | 37.20713 | 9003 ft | 322 kts | 76° |
| 2026-05-06 05:45 | 56.14702 | 37.24610 | 8994 ft | 322 kts | 76° |
| 2026-05-06 05:45 | 56.15245 | 37.28444 | 8995 ft | 322 kts | 77° |
| 2026-05-06 05:46 | 56.15879 | 37.32307 | 8997 ft | 322 kts | 69° |
| 2026-05-06 05:46 | 56.16849 | 37.35921 | 8991 ft | 321 kts | 58° |
| 2026-05-06 05:46 | 56.18076 | 37.39206 | 8988 ft | 321 kts | 53° |
| 2026-05-06 05:46 | 56.19346 | 37.42517 | 8997 ft | 321 kts | 54° |
| 2026-05-06 05:47 | 56.20608 | 37.45829 | 8991 ft | 321 kts | 54° |
| 2026-05-06 05:47 | 56.21863 | 37.49141 | 8989 ft | 321 kts | 54° |
| 2026-05-06 05:47 | 56.23095 | 37.52396 | 8989 ft | 321 kts | 54° |
| 2026-05-06 05:47 | 56.24354 | 37.55711 | 8979 ft | 321 kts | 54° |
| 2026-05-06 05:48 | 56.25619 | 37.59034 | 8984 ft | 322 kts | 54° |
| 2026-05-06 05:48 | 56.26882 | 37.62355 | 8975 ft | 321 kts | 54° |
| 2026-05-06 05:48 | 56.28146 | 37.65681 | 8979 ft | 321 kts | 54° |
| 2026-05-06 05:48 | 56.29407 | 37.69002 | 8978 ft | 322 kts | 54° |
| 2026-05-06 05:49 | 56.30735 | 37.72244 | 8976 ft | 321 kts | 47° |
| 2026-05-06 05:49 | 56.32132 | 37.75223 | 8971 ft | 321 kts | 48° |
| 2026-05-06 05:49 | 56.33573 | 37.78318 | 8979 ft | 321 kts | 48° |
| 2026-05-06 05:49 | 56.35006 | 37.81403 | 8977 ft | 320 kts | 48° |
| 2026-05-06 05:50 | 56.36471 | 37.84433 | 8976 ft | 319 kts | 42° |
| 2026-05-06 05:50 | 56.38152 | 37.87014 | 8971 ft | 317 kts | 31° |
| 2026-05-06 05:50 | 56.40039 | 37.89033 | 8978 ft | 313 kts | 21° |
| 2026-05-06 05:50 | 56.42052 | 37.90444 | 8975 ft | 308 kts | 11° |
| 2026-05-06 05:51 | 56.44136 | 37.91252 | 8972 ft | 303 kts | 1° |
| 2026-05-06 05:51 | 56.46169 | 37.91568 | 8970 ft | 301 kts | 358° |
| 2026-05-06 05:51 | 56.48259 | 37.91851 | 8974 ft | 301 kts | 358° |
| 2026-05-06 05:51 | 56.50353 | 37.92132 | 8968 ft | 302 kts | 358° |
| 2026-05-06 05:52 | 56.52459 | 37.92416 | 9164 ft | 304 kts | 358° |
| 2026-05-06 05:52 | 56.54578 | 37.92700 | 10024 ft | 307 kts | 357° |
| 2026-05-06 05:52 | 56.56780 | 37.92982 | 10369 ft | 329 kts | 358° |
| 2026-05-06 05:52 | 56.59138 | 37.93278 | 10769 ft | 346 kts | 358° |
| 2026-05-06 05:53 | 56.61524 | 37.93597 | 11450 ft | 352 kts | 359° |
| 2026-05-06 05:53 | 56.63988 | 37.93942 | 12205 ft | 357 kts | 359° |
| 2026-05-06 05:53 | 56.66476 | 37.94541 | 12953 ft | 366 kts | 8° |
| 2026-05-06 05:53 | 56.68918 | 37.96052 | 13684 ft | 376 kts | 21° |
| 2026-05-06 05:54 | 56.71174 | 37.98483 | 14329 ft | 385 kts | 34° |
| 2026-05-06 05:54 | 56.73174 | 38.01771 | 14983 ft | 390 kts | 43° |
| 2026-05-06 05:54 | 56.75118 | 38.05274 | 15647 ft | 393 kts | 42° |
| 2026-05-06 05:54 | 56.77044 | 38.08731 | 16277 ft | 397 kts | 42° |
| 2026-05-06 05:55 | 56.79024 | 38.12287 | 16919 ft | 400 kts | 42° |
| 2026-05-06 05:55 | 56.81013 | 38.15858 | 17564 ft | 403 kts | 42° |
| 2026-05-06 05:55 | 56.83036 | 38.19432 | 18176 ft | 406 kts | 38° |
| 2026-05-06 05:55 | 56.85328 | 38.22484 | 18714 ft | 405 kts | 26° |
| 2026-05-06 05:56 | 56.87830 | 38.24644 | 19265 ft | 403 kts | 15° |
| 2026-05-06 05:56 | 56.90541 | 38.25936 | 19827 ft | 399 kts | 4° |
| 2026-05-06 05:56 | 56.93255 | 38.26288 | 20384 ft | 396 kts | 352° |
| 2026-05-06 05:56 | 56.96004 | 38.25967 | 20940 ft | 396 kts | 350° |
| 2026-05-06 05:57 | 56.98767 | 38.25608 | 21509 ft | 399 kts | 350° |
| 2026-05-06 05:57 | 57.01545 | 38.25253 | 22066 ft | 402 kts | 350° |
| 2026-05-06 05:57 | 57.04354 | 38.24903 | 22633 ft | 405 kts | 350° |
| 2026-05-06 05:57 | 57.07138 | 38.24556 | 23167 ft | 408 kts | 350° |
| 2026-05-06 05:58 | 57.09984 | 38.24199 | 23649 ft | 410 kts | 350° |
| 2026-05-06 05:58 | 57.12787 | 38.23844 | 24079 ft | 413 kts | 349° |
| 2026-05-06 05:58 | 57.15653 | 38.23480 | 24511 ft | 416 kts | 349° |
| 2026-05-06 05:58 | 57.18561 | 38.23113 | 24951 ft | 418 kts | 349° |
| 2026-05-06 05:59 | 57.21473 | 38.22745 | 25378 ft | 421 kts | 349° |
| 2026-05-06 05:59 | 57.24410 | 38.22375 | 25797 ft | 424 kts | 349° |
| 2026-05-06 05:59 | 57.27357 | 38.22001 | 26195 ft | 426 kts | 349° |
| 2026-05-06 05:59 | 57.30318 | 38.21621 | 26570 ft | 428 kts | 349° |
| 2026-05-06 06:00 | 57.33255 | 38.21238 | 26945 ft | 431 kts | 349° |
| 2026-05-06 06:00 | 57.36258 | 38.20848 | 27319 ft | 433 kts | 349° |
| 2026-05-06 06:00 | 57.39278 | 38.20464 | 27693 ft | 436 kts | 349° |
| 2026-05-06 06:00 | 57.42312 | 38.20085 | 28069 ft | 438 kts | 349° |
| 2026-05-06 06:01 | 57.45371 | 38.19704 | 28426 ft | 440 kts | 349° |
| 2026-05-06 06:01 | 57.47400 | 38.19445 | 28672 ft | 442 kts | 349° |
| 2026-05-06 06:01 | 57.51483 | 38.18916 | 29125 ft | 444 kts | 349° |
| 2026-05-06 06:01 | 57.54528 | 38.18514 | 29458 ft | 446 kts | 349° |
| 2026-05-06 06:02 | 57.57627 | 38.18101 | 29795 ft | 448 kts | 349° |
| 2026-05-06 06:02 | 57.59737 | 38.17823 | 29988 ft | 450 kts | 349° |
| 2026-05-06 06:02 | 57.63885 | 38.17285 | 30331 ft | 453 kts | 349° |
| 2026-05-06 06:02 | 57.65975 | 38.17017 | 30503 ft | 454 kts | 349° |
| 2026-05-06 06:03 | 57.69140 | 38.16610 | 30741 ft | 456 kts | 349° |
| 2026-05-06 06:03 | 57.72317 | 38.16199 | 30977 ft | 458 kts | 349° |
| 2026-05-06 06:03 | 57.75453 | 38.15790 | 31227 ft | 460 kts | 349° |
| 2026-05-06 06:03 | 57.78650 | 38.15378 | 31582 ft | 460 kts | 349° |
| 2026-05-06 06:04 | 57.81850 | 38.14967 | 31929 ft | 459 kts | 349° |
| 2026-05-06 06:04 | 57.84996 | 38.14552 | 32247 ft | 459 kts | 348° |
| 2026-05-06 06:04 | 57.88183 | 38.14129 | 32553 ft | 459 kts | 348° |
| 2026-05-06 06:04 | 57.91384 | 38.13807 | 32861 ft | 463 kts | 353° |
| 2026-05-06 06:05 | 57.94618 | 38.14153 | 33188 ft | 468 kts | 358° |
| 2026-05-06 06:05 | 57.97811 | 38.14688 | 33533 ft | 467 kts | 358° |
| 2026-05-06 06:05 | 58.01055 | 38.15238 | 33876 ft | 467 kts | 358° |
| 2026-05-06 06:05 | 58.04290 | 38.15785 | 34150 ft | 466 kts | 358° |
| 2026-05-06 06:06 | 58.07529 | 38.16328 | 34424 ft | 466 kts | 358° |
| 2026-05-06 06:06 | 58.10756 | 38.16862 | 34688 ft | 465 kts | 358° |
| 2026-05-06 06:06 | 58.13938 | 38.17386 | 34939 ft | 465 kts | 358° |
| 2026-05-06 06:06 | 58.17158 | 38.17920 | 35193 ft | 464 kts | 358° |
| 2026-05-06 06:07 | 58.20355 | 38.18456 | 35440 ft | 464 kts | 358° |
| 2026-05-06 06:07 | 58.23537 | 38.18988 | 35682 ft | 463 kts | 359° |
| 2026-05-06 06:07 | 58.26756 | 38.19529 | 35896 ft | 463 kts | 359° |
| 2026-05-06 06:07 | 58.29967 | 38.20074 | 36113 ft | 463 kts | 359° |
| 2026-05-06 06:08 | 58.33173 | 38.20620 | 36333 ft | 463 kts | 359° |
| 2026-05-06 06:08 | 58.36385 | 38.21168 | 36529 ft | 462 kts | 359° |
| 2026-05-06 06:08 | 58.39591 | 38.21712 | 36727 ft | 463 kts | 359° |
| 2026-05-06 06:08 | 58.42792 | 38.22256 | 36786 ft | 461 kts | 359° |
| 2026-05-06 06:09 | 58.49103 | 38.23331 | 36782 ft | 460 kts | 359° |
| 2026-05-06 06:09 | 58.55494 | 38.24416 | 36771 ft | 460 kts | 359° |
| 2026-05-06 06:10 | 58.61876 | 38.25520 | 36774 ft | 460 kts | 359° |
| 2026-05-06 06:10 | 58.68217 | 38.26439 | 36779 ft | 456 kts | 353° |
| 2026-05-06 06:11 | 58.74339 | 38.24809 | 36782 ft | 444 kts | 340° |
| 2026-05-06 06:11 | 58.80387 | 38.22216 | 36780 ft | 445 kts | 341° |
| 2026-05-06 06:12 | 58.86439 | 38.19658 | 36788 ft | 445 kts | 341° |
| 2026-05-06 06:12 | 58.92453 | 38.17109 | 36787 ft | 446 kts | 341° |
| 2026-05-06 06:13 | 58.98513 | 38.14529 | 36792 ft | 446 kts | 341° |
| 2026-05-06 06:13 | 59.04584 | 38.11925 | 36800 ft | 446 kts | 341° |
| 2026-05-06 06:14 | 59.10557 | 38.09363 | 36804 ft | 446 kts | 341° |
| 2026-05-06 06:14 | 59.16625 | 38.06744 | 36803 ft | 446 kts | 341° |
| 2026-05-06 06:15 | 59.22696 | 38.04108 | 36810 ft | 446 kts | 341° |
| 2026-05-06 06:15 | 59.28879 | 38.02359 | 36807 ft | 456 kts | 354° |
| 2026-05-06 06:16 | 59.35156 | 38.03377 | 36806 ft | 460 kts | 360° |
| 2026-05-06 06:16 | 59.41529 | 38.04609 | 36799 ft | 460 kts | 360° |
| 2026-05-06 06:17 | 59.47912 | 38.05829 | 36793 ft | 460 kts | 360° |
| 2026-05-06 06:17 | 59.54244 | 38.07057 | 36790 ft | 461 kts | 360° |
| 2026-05-06 06:18 | 59.60623 | 38.08294 | 36790 ft | 460 kts | 359° |
| 2026-05-06 06:18 | 59.67009 | 38.09536 | 36790 ft | 460 kts | 359° |
| 2026-05-06 06:19 | 59.73387 | 38.10790 | 36790 ft | 461 kts | 359° |
| 2026-05-06 06:19 | 59.79717 | 38.12032 | 36790 ft | 460 kts | 359° |
| 2026-05-06 06:20 | 59.86094 | 38.13283 | 36790 ft | 461 kts | 359° |
| 2026-05-06 06:20 | 59.92444 | 38.14548 | 36796 ft | 461 kts | 359° |
| 2026-05-06 06:21 | 59.98773 | 38.15810 | 36801 ft | 461 kts | 359° |
| 2026-05-06 06:21 | 60.05157 | 38.17097 | 36803 ft | 461 kts | 359° |
| 2026-05-06 06:22 | 60.11553 | 38.18378 | 36801 ft | 461 kts | 359° |
| 2026-05-06 06:22 | 60.17922 | 38.19658 | 36810 ft | 461 kts | 359° |
| 2026-05-06 06:23 | 60.24245 | 38.20946 | 36805 ft | 462 kts | 359° |
| 2026-05-06 06:23 | 60.30647 | 38.22248 | 36810 ft | 462 kts | 359° |
| 2026-05-06 06:24 | 60.37048 | 38.23532 | 36806 ft | 462 kts | 359° |
| 2026-05-06 06:24 | 60.43415 | 38.24822 | 36806 ft | 462 kts | 359° |
| 2026-05-06 06:25 | 60.49818 | 38.26120 | 36805 ft | 463 kts | 359° |
| 2026-05-06 06:26 | 60.59392 | 38.28083 | 36800 ft | 463 kts | 359° |
| 2026-05-06 06:26 | 60.65768 | 38.29418 | 36805 ft | 463 kts | 359° |
| 2026-05-06 06:27 | 60.72190 | 38.30746 | 36798 ft | 464 kts | 358° |
| 2026-05-06 06:27 | 60.78634 | 38.32074 | 36803 ft | 464 kts | 358° |
| 2026-05-06 06:28 | 60.85062 | 38.33413 | 36810 ft | 464 kts | 358° |
| 2026-05-06 06:28 | 60.91424 | 38.34745 | 36812 ft | 465 kts | 359° |
| 2026-05-06 06:29 | 60.97866 | 38.36114 | 36812 ft | 465 kts | 359° |
| 2026-05-06 06:29 | 61.04271 | 38.37473 | 36815 ft | 465 kts | 358° |
| 2026-05-06 06:30 | 61.10630 | 38.38825 | 36815 ft | 465 kts | 358° |
| 2026-05-06 06:30 | 61.17085 | 38.40203 | 36813 ft | 466 kts | 358° |
| 2026-05-06 06:31 | 61.23512 | 38.41115 | 36813 ft | 457 kts | 349° |
| 2026-05-06 06:31 | 61.29670 | 38.39029 | 36813 ft | 445 kts | 339° |
| 2026-05-06 06:32 | 61.35634 | 38.36257 | 36815 ft | 445 kts | 339° |
| 2026-05-06 06:32 | 61.41687 | 38.33457 | 36809 ft | 445 kts | 339° |
| 2026-05-06 06:33 | 61.47742 | 38.30645 | 36807 ft | 445 kts | 339° |
| 2026-05-06 06:33 | 61.53742 | 38.27823 | 36802 ft | 446 kts | 339° |
| 2026-05-06 06:33 | 61.56761 | 38.26411 | 37013 ft | 445 kts | 339° |
| 2026-05-06 06:34 | 61.59775 | 38.25002 | 37290 ft | 444 kts | 339° |
| 2026-05-06 06:34 | 61.62790 | 38.23588 | 37560 ft | 442 kts | 340° |
| 2026-05-06 06:34 | 61.65803 | 38.22165 | 37750 ft | 443 kts | 340° |
| 2026-05-06 06:35 | 61.71865 | 38.19281 | 37792 ft | 451 kts | 340° |
| 2026-05-06 06:35 | 61.77914 | 38.16396 | 37792 ft | 453 kts | 340° |
| 2026-05-06 06:36 | 61.84080 | 38.13456 | 37792 ft | 453 kts | 340° |
| 2026-05-06 06:36 | 61.90238 | 38.10509 | 37790 ft | 454 kts | 340° |
| 2026-05-06 06:37 | 61.96395 | 38.07536 | 37798 ft | 454 kts | 340° |
| 2026-05-06 06:37 | 62.02516 | 38.04524 | 37799 ft | 454 kts | 340° |
| 2026-05-06 06:38 | 62.08670 | 38.01438 | 37803 ft | 454 kts | 339° |
| 2026-05-06 06:38 | 62.14775 | 37.98351 | 37803 ft | 454 kts | 339° |
| 2026-05-06 06:39 | 62.20889 | 37.95281 | 37802 ft | 454 kts | 340° |
| 2026-05-06 06:39 | 62.27048 | 37.92197 | 37801 ft | 454 kts | 340° |
| 2026-05-06 06:40 | 62.33194 | 37.89095 | 37800 ft | 453 kts | 340° |
| 2026-05-06 06:40 | 62.39274 | 37.85985 | 37800 ft | 453 kts | 340° |
| 2026-05-06 06:41 | 62.45375 | 37.82869 | 37796 ft | 453 kts | 340° |
| 2026-05-06 06:41 | 62.51525 | 37.79735 | 37795 ft | 453 kts | 340° |
| 2026-05-06 06:42 | 62.57662 | 37.76572 | 37794 ft | 453 kts | 340° |
| 2026-05-06 06:42 | 62.63712 | 37.73425 | 37790 ft | 453 kts | 339° |
| 2026-05-06 06:43 | 62.69777 | 37.69850 | 37793 ft | 450 kts | 336° |
| 2026-05-06 06:43 | 62.75776 | 37.65784 | 37782 ft | 449 kts | 335° |
| 2026-05-06 06:44 | 62.81728 | 37.61704 | 37778 ft | 449 kts | 336° |
| 2026-05-06 06:44 | 62.87556 | 37.57842 | 37769 ft | 450 kts | 336° |
| 2026-05-06 06:45 | 62.93569 | 37.53914 | 37765 ft | 451 kts | 336° |
| 2026-05-06 06:45 | 62.99592 | 37.49952 | 37769 ft | 452 kts | 336° |
| 2026-05-06 06:46 | 63.05562 | 37.45983 | 37765 ft | 452 kts | 336° |
| 2026-05-06 06:46 | 63.11594 | 37.41941 | 37761 ft | 453 kts | 336° |
| 2026-05-06 06:47 | 63.17627 | 37.37878 | 37758 ft | 453 kts | 336° |
| 2026-05-06 06:47 | 63.23623 | 37.33817 | 37754 ft | 454 kts | 336° |
| 2026-05-06 06:48 | 63.29602 | 37.29712 | 37752 ft | 454 kts | 336° |
| 2026-05-06 06:48 | 63.35626 | 37.25403 | 37751 ft | 454 kts | 335° |
| 2026-05-06 06:49 | 63.41637 | 37.21015 | 37742 ft | 455 kts | 335° |
| 2026-05-06 06:49 | 63.47548 | 37.16487 | 37738 ft | 454 kts | 334° |
| 2026-05-06 06:50 | 63.53492 | 37.11731 | 37733 ft | 454 kts | 334° |
| 2026-05-06 06:50 | 63.59439 | 37.06961 | 37728 ft | 453 kts | 334° |
| 2026-05-06 06:51 | 63.65392 | 37.02238 | 37726 ft | 453 kts | 334° |
| 2026-05-06 06:51 | 63.70297 | 36.98348 | 37727 ft | 453 kts | 334° |
| 2026-05-06 06:52 | 63.76246 | 36.93589 | 37717 ft | 453 kts | 334° |
| 2026-05-06 06:52 | 63.82196 | 36.88792 | 37714 ft | 453 kts | 334° |
| 2026-05-06 06:53 | 63.88083 | 36.84021 | 37710 ft | 453 kts | 334° |
| 2026-05-06 06:53 | 63.94008 | 36.79221 | 37707 ft | 453 kts | 334° |
| 2026-05-06 06:54 | 63.99951 | 36.74388 | 37701 ft | 453 kts | 334° |
| 2026-05-06 06:54 | 64.05884 | 36.69543 | 37702 ft | 453 kts | 334° |
| 2026-05-06 06:55 | 64.11784 | 36.64698 | 37701 ft | 453 kts | 334° |
| 2026-05-06 06:55 | 64.17681 | 36.59824 | 37702 ft | 454 kts | 334° |
| 2026-05-06 06:56 | 64.23619 | 36.54897 | 37702 ft | 454 kts | 334° |
| 2026-05-06 06:56 | 64.29555 | 36.49966 | 37705 ft | 454 kts | 334° |
| 2026-05-06 06:57 | 64.35447 | 36.45051 | 37701 ft | 453 kts | 334° |
| 2026-05-06 06:57 | 64.41375 | 36.40063 | 37696 ft | 453 kts | 334° |
| 2026-05-06 06:58 | 64.47298 | 36.35077 | 37698 ft | 453 kts | 334° |
| 2026-05-06 06:58 | 64.53192 | 36.30102 | 37698 ft | 453 kts | 334° |
| 2026-05-06 06:59 | 64.59095 | 36.25075 | 37697 ft | 453 kts | 334° |
| 2026-05-06 06:59 | 64.64912 | 36.19531 | 37697 ft | 448 kts | 327° |
| 2026-05-06 07:00 | 64.70464 | 36.12890 | 37696 ft | 448 kts | 327° |
| 2026-05-06 07:00 | 64.75982 | 36.06258 | 37686 ft | 448 kts | 327° |
| 2026-05-06 07:01 | 64.81497 | 35.99601 | 37698 ft | 448 kts | 327° |
| 2026-05-06 07:01 | 64.87035 | 35.92841 | 37694 ft | 448 kts | 327° |
| 2026-05-06 07:02 | 64.92509 | 35.86083 | 37686 ft | 448 kts | 327° |
| 2026-05-06 07:02 | 64.97997 | 35.79289 | 37692 ft | 448 kts | 327° |
| 2026-05-06 07:03 | 65.03453 | 35.72478 | 37692 ft | 448 kts | 326° |
| 2026-05-06 07:03 | 65.08843 | 35.64748 | 37688 ft | 445 kts | 322° |
| 2026-05-06 07:04 | 65.13925 | 35.56697 | 37689 ft | 445 kts | 321° |
| 2026-05-06 07:04 | 65.19091 | 35.48533 | 37684 ft | 446 kts | 322° |
| 2026-05-06 07:05 | 65.24301 | 35.40498 | 37689 ft | 446 kts | 322° |
| 2026-05-06 07:05 | 65.29511 | 35.32588 | 37694 ft | 446 kts | 322° |
| 2026-05-06 07:06 | 65.34744 | 35.24612 | 37689 ft | 446 kts | 322° |
| 2026-05-06 07:06 | 65.39967 | 35.16574 | 37690 ft | 446 kts | 322° |
| 2026-05-06 07:07 | 65.45153 | 35.08524 | 37695 ft | 446 kts | 322° |
| 2026-05-06 07:07 | 65.50328 | 35.00438 | 37698 ft | 446 kts | 322° |
| 2026-05-06 07:08 | 65.55543 | 34.92251 | 37693 ft | 446 kts | 322° |
| 2026-05-06 07:08 | 65.60750 | 34.84057 | 37690 ft | 446 kts | 322° |
| 2026-05-06 07:09 | 65.65907 | 34.75911 | 37694 ft | 446 kts | 322° |
| 2026-05-06 07:09 | 65.71064 | 34.67729 | 37693 ft | 446 kts | 322° |
| 2026-05-06 07:10 | 65.76261 | 34.59434 | 37692 ft | 445 kts | 322° |
| 2026-05-06 07:10 | 65.81441 | 34.51108 | 37695 ft | 445 kts | 322° |
| 2026-05-06 07:11 | 65.86619 | 34.42849 | 35423 ft | 469 kts | 325° |
| 2026-05-06 07:11 | 65.89595 | 34.38496 | 33230 ft | 508 kts | 325° |
| 2026-05-06 07:11 | 65.92500 | 34.34253 | 33928 ft | 469 kts | 325° |
| 2026-05-06 07:11 | 65.95202 | 34.30067 | 34003 ft | 453 kts | 322° |
| 2026-05-06 07:12 | 65.97718 | 34.25701 | 34002 ft | 445 kts | 320° |
| 2026-05-06 07:12 | 66.00203 | 34.21173 | 34267 ft | 444 kts | 319° |
| 2026-05-06 07:12 | 66.02651 | 34.16743 | 34603 ft | 443 kts | 320° |
| 2026-05-06 07:12 | 66.05153 | 34.12336 | 34883 ft | 443 kts | 321° |
| 2026-05-06 07:13 | 66.07681 | 34.07971 | 35136 ft | 443 kts | 321° |
| 2026-05-06 07:13 | 66.10216 | 34.03656 | 35378 ft | 443 kts | 321° |
| 2026-05-06 07:13 | 66.12765 | 33.99344 | 35608 ft | 443 kts | 322° |
| 2026-05-06 07:13 | 66.15309 | 33.95037 | 35810 ft | 443 kts | 321° |
| 2026-05-06 07:14 | 66.17855 | 33.90698 | 36021 ft | 444 kts | 321° |
| 2026-05-06 07:14 | 66.20349 | 33.86423 | 36222 ft | 444 kts | 321° |
| 2026-05-06 07:14 | 66.22885 | 33.82055 | 36423 ft | 444 kts | 321° |
| 2026-05-06 07:14 | 66.25415 | 33.77679 | 36616 ft | 444 kts | 321° |
| 2026-05-06 07:15 | 66.27917 | 33.73332 | 36784 ft | 444 kts | 321° |
| 2026-05-06 07:15 | 66.30442 | 33.68924 | 36964 ft | 444 kts | 321° |
| 2026-05-06 07:15 | 66.32972 | 33.64500 | 37143 ft | 444 kts | 321° |
| 2026-05-06 07:15 | 66.35524 | 33.60125 | 37307 ft | 446 kts | 325° |
| 2026-05-06 07:16 | 66.38248 | 33.56605 | 37462 ft | 450 kts | 334° |
| 2026-05-06 07:16 | 66.41238 | 33.54128 | 37633 ft | 453 kts | 341° |
| 2026-05-06 07:16 | 66.44294 | 33.52010 | 37689 ft | 455 kts | 341° |
| 2026-05-06 07:17 | 66.50353 | 33.47802 | 37686 ft | 455 kts | 341° |
| 2026-05-06 07:17 | 66.56447 | 33.43524 | 37686 ft | 450 kts | 341° |
| 2026-05-06 07:17 | 66.59381 | 33.41464 | 37683 ft | 437 kts | 340° |
| 2026-05-06 07:18 | 66.62308 | 33.39409 | 37689 ft | 439 kts | 340° |
| 2026-05-06 07:18 | 66.68239 | 33.35189 | 37686 ft | 449 kts | 340° |
| 2026-05-06 07:19 | 66.74310 | 33.30839 | 37692 ft | 457 kts | 340° |
| 2026-05-06 07:19 | 66.80424 | 33.26432 | 37687 ft | 463 kts | 341° |
| 2026-05-06 07:20 | 66.86670 | 33.21923 | 37689 ft | 469 kts | 341° |
| 2026-05-06 07:20 | 66.89822 | 33.19649 | 37545 ft | 474 kts | 341° |
| 2026-05-06 07:20 | 66.93029 | 33.17332 | 37290 ft | 481 kts | 341° |
| 2026-05-06 07:20 | 66.96265 | 33.14992 | 37052 ft | 487 kts | 341° |
| 2026-05-06 07:21 | 66.99542 | 33.12608 | 36814 ft | 492 kts | 341° |
| 2026-05-06 07:21 | 67.02751 | 33.10260 | 36512 ft | 492 kts | 341° |
| 2026-05-06 07:21 | 67.06017 | 33.07868 | 35578 ft | 480 kts | 341° |
| 2026-05-06 07:21 | 67.09210 | 33.05527 | 34559 ft | 472 kts | 341° |
| 2026-05-06 07:22 | 67.12335 | 33.03231 | 33646 ft | 463 kts | 341° |
| 2026-05-06 07:22 | 67.15396 | 33.00976 | 32715 ft | 452 kts | 341° |
| 2026-05-06 07:22 | 67.18370 | 32.98777 | 32260 ft | 433 kts | 341° |
| 2026-05-06 07:22 | 67.21179 | 32.96698 | 31762 ft | 418 kts | 341° |
| 2026-05-06 07:23 | 67.23933 | 32.94655 | 31274 ft | 404 kts | 341° |
| 2026-05-06 07:23 | 67.26554 | 32.92698 | 30786 ft | 391 kts | 341° |
| 2026-05-06 07:23 | 67.29162 | 32.90733 | 30331 ft | 396 kts | 341° |
| 2026-05-06 07:23 | 67.31820 | 32.88714 | 29846 ft | 399 kts | 341° |
| 2026-05-06 07:24 | 67.34480 | 32.86695 | 29307 ft | 396 kts | 341° |
| 2026-05-06 07:24 | 67.37110 | 32.84705 | 28857 ft | 392 kts | 341° |
| 2026-05-06 07:24 | 67.39719 | 32.82731 | 28413 ft | 388 kts | 341° |
| 2026-05-06 07:24 | 67.42311 | 32.80771 | 27659 ft | 390 kts | 342° |
| 2026-05-06 07:25 | 67.44884 | 32.78985 | 27237 ft | 386 kts | 347° |
| 2026-05-06 07:25 | 67.47546 | 32.78260 | 26802 ft | 383 kts | 357° |
| 2026-05-06 07:25 | 67.50168 | 32.78189 | 26379 ft | 380 kts | 357° |
| 2026-05-06 07:25 | 67.52794 | 32.78105 | 25937 ft | 376 kts | 357° |
| 2026-05-06 07:26 | 67.55400 | 32.78007 | 25499 ft | 372 kts | 357° |
| 2026-05-06 07:26 | 67.57977 | 32.77903 | 25042 ft | 369 kts | 357° |
| 2026-05-06 07:26 | 67.60533 | 32.77796 | 24603 ft | 366 kts | 358° |
| 2026-05-06 07:26 | 67.63031 | 32.77693 | 24137 ft | 364 kts | 358° |
| 2026-05-06 07:27 | 67.65552 | 32.77595 | 23677 ft | 361 kts | 358° |
| 2026-05-06 07:27 | 67.68066 | 32.77496 | 23189 ft | 360 kts | 358° |
| 2026-05-06 07:27 | 67.70564 | 32.77403 | 22672 ft | 356 kts | 358° |
| 2026-05-06 07:27 | 67.73027 | 32.77314 | 22204 ft | 352 kts | 358° |
| 2026-05-06 07:28 | 67.75469 | 32.77228 | 21757 ft | 349 kts | 358° |
| 2026-05-06 07:28 | 67.77859 | 32.77143 | 21314 ft | 345 kts | 358° |
| 2026-05-06 07:28 | 67.82584 | 32.76952 | 20448 ft | 339 kts | 358° |
| 2026-05-06 07:29 | 67.84924 | 32.76854 | 20015 ft | 335 kts | 358° |
| 2026-05-06 07:29 | 67.87250 | 32.76762 | 19589 ft | 332 kts | 358° |
| 2026-05-06 07:29 | 67.89556 | 32.76674 | 19161 ft | 330 kts | 358° |
| 2026-05-06 07:29 | 67.91841 | 32.76586 | 18738 ft | 328 kts | 358° |
| 2026-05-06 07:30 | 67.94118 | 32.76503 | 18328 ft | 325 kts | 358° |
| 2026-05-06 07:30 | 67.96349 | 32.76422 | 17910 ft | 324 kts | 358° |
| 2026-05-06 07:30 | 67.98562 | 32.76332 | 17467 ft | 321 kts | 358° |
| 2026-05-06 07:30 | 68.00789 | 32.76261 | 17069 ft | 318 kts | 358° |
| 2026-05-06 07:31 | 68.02991 | 32.76220 | 16672 ft | 314 kts | 358° |
| 2026-05-06 07:31 | 68.05171 | 32.76196 | 16286 ft | 312 kts | 358° |
| 2026-05-06 07:31 | 68.07332 | 32.76175 | 15899 ft | 309 kts | 358° |
| 2026-05-06 07:31 | 68.09473 | 32.76157 | 15520 ft | 307 kts | 358° |
| 2026-05-06 07:32 | 68.11570 | 32.76134 | 15149 ft | 305 kts | 358° |
| 2026-05-06 07:32 | 68.13684 | 32.76106 | 14784 ft | 302 kts | 358° |
| 2026-05-06 07:32 | 68.15786 | 32.76072 | 14412 ft | 301 kts | 358° |
| 2026-05-06 07:32 | 68.17869 | 32.76035 | 14035 ft | 299 kts | 358° |
| 2026-05-06 07:33 | 68.19947 | 32.76000 | 13668 ft | 298 kts | 358° |
| 2026-05-06 07:33 | 68.22013 | 32.75965 | 13271 ft | 297 kts | 358° |
| 2026-05-06 07:33 | 68.24046 | 32.75933 | 12894 ft | 294 kts | 358° |
| 2026-05-06 07:33 | 68.26054 | 32.75905 | 12530 ft | 292 kts | 358° |
| 2026-05-06 07:34 | 68.28079 | 32.75877 | 12155 ft | 289 kts | 358° |
| 2026-05-06 07:34 | 68.30092 | 32.75847 | 11786 ft | 288 kts | 358° |
| 2026-05-06 07:34 | 68.32090 | 32.75821 | 11406 ft | 286 kts | 358° |
| 2026-05-06 07:34 | 68.34083 | 32.75790 | 11027 ft | 285 kts | 358° |
| 2026-05-06 07:35 | 68.36055 | 32.75753 | 10663 ft | 283 kts | 358° |
| 2026-05-06 07:35 | 68.38022 | 32.75720 | 10256 ft | 282 kts | 358° |
| 2026-05-06 07:35 | 68.39953 | 32.75687 | 9879 ft | 281 kts | 358° |
| 2026-05-06 07:35 | 68.41902 | 32.75653 | 9482 ft | 278 kts | 358° |
| 2026-05-06 07:36 | 68.43792 | 32.75694 | 9081 ft | 264 kts | 0° |
| 2026-05-06 07:36 | 68.45560 | 32.75863 | 8750 ft | 249 kts | 1° |
| 2026-05-06 07:36 | 68.47225 | 32.76073 | 8583 ft | 231 kts | 1° |
| 2026-05-06 07:36 | 68.48794 | 32.76275 | 8284 ft | 221 kts | 1° |
| 2026-05-06 07:37 | 68.50321 | 32.76468 | 7984 ft | 219 kts | 2° |
| 2026-05-06 07:37 | 68.51820 | 32.76651 | 7653 ft | 219 kts | 2° |
| 2026-05-06 07:37 | 68.53330 | 32.76950 | 7312 ft | 220 kts | 4° |
| 2026-05-06 07:37 | 68.54860 | 32.77340 | 6954 ft | 221 kts | 5° |
| 2026-05-06 07:38 | 68.56381 | 32.77885 | 6587 ft | 219 kts | 13° |
| 2026-05-06 07:38 | 68.57778 | 32.79331 | 6236 ft | 213 kts | 27° |
| 2026-05-06 07:38 | 68.58980 | 32.81624 | 5873 ft | 208 kts | 40° |
| 2026-05-06 07:38 | 68.59920 | 32.84582 | 5515 ft | 204 kts | 53° |
| 2026-05-06 07:39 | 68.60684 | 32.87754 | 5198 ft | 198 kts | 53° |
| 2026-05-06 07:39 | 68.61176 | 32.89791 | 5002 ft | 191 kts | 53° |
| 2026-05-06 07:39 | 68.62123 | 32.93704 | 4524 ft | 181 kts | 53° |
| 2026-05-06 07:39 | 68.62805 | 32.96519 | 4191 ft | 174 kts | 53° |
| 2026-05-06 07:40 | 68.63632 | 32.98736 | 3875 ft | 162 kts | 24° |
| 2026-05-06 07:40 | 68.64338 | 32.99268 | 3687 ft | 152 kts | 2° |
| 2026-05-06 07:40 | 68.65315 | 32.98705 | 3449 ft | 141 kts | 335° |
| 2026-05-06 07:40 | 68.66109 | 32.97276 | 3196 ft | 134 kts | 329° |
| 2026-05-06 07:41 | 68.66872 | 32.95887 | 2959 ft | 131 kts | 329° |
| 2026-05-06 07:41 | 68.67623 | 32.94516 | 2710 ft | 130 kts | 330° |
| 2026-05-06 07:41 | 68.68375 | 32.93143 | 2476 ft | 130 kts | 329° |
| 2026-05-06 07:41 | 68.69129 | 32.91764 | 2230 ft | 129 kts | 329° |
| 2026-05-06 07:42 | 68.69876 | 32.90399 | 2013 ft | 129 kts | 329° |
| 2026-05-06 07:42 | 68.70618 | 32.89038 | 1906 ft | 129 kts | 329° |
| 2026-05-06 07:42 | 68.71362 | 32.87674 | 1761 ft | 129 kts | 329° |
| 2026-05-06 07:42 | 68.72096 | 32.86322 | 1595 ft | 129 kts | 329° |
| 2026-05-06 07:43 | 68.72826 | 32.84965 | 1389 ft | 128 kts | 329° |
| 2026-05-06 07:43 | 68.73564 | 32.83607 | 1184 ft | 127 kts | 330° |
| 2026-05-06 07:43 | 68.74306 | 32.82255 | 998 ft | 128 kts | 329° |
| 2026-05-06 07:43 | 68.75051 | 32.80909 | 850 ft | 128 kts | 328° |
| 2026-05-06 07:44 | 68.75799 | 32.79539 | 666 ft | 129 kts | 327° |
| 2026-05-06 07:44 | 68.76550 | 32.78166 | 478 ft | 130 kts | 327° |
| 2026-05-06 07:44 | 68.77297 | 32.76820 | 309 ft | 129 kts | 327° |
| 2026-05-06 07:44 | 68.77980 | 32.75561 | 272 ft | 96 kts | 326° |
| 2026-05-06 07:45 | 68.78392 | 32.74804 | 271 ft | 46 kts | 327° |
| 2026-05-06 07:45 | 68.78603 | 32.74420 | 270 ft | 36 kts | 327° |
| 2026-05-06 07:45 | 68.78804 | 32.74041 | 269 ft | 28 kts | 326° |
| 2026-05-06 07:45 | 68.78904 | 32.73874 | 267 ft | 19 kts | 339° |
| 2026-05-06 07:46 | 68.79024 | 32.73969 | 267 ft | 14 kts | 24° |
| 2026-05-06 07:46 | 68.79118 | 32.74002 | 267 ft | 17 kts | 338° |
| 2026-05-06 07:46 | 68.79202 | 32.73837 | 266 ft | 13 kts | 304° |
| 2026-05-06 07:46 | 68.79176 | 32.73626 | 266 ft | 15 kts | 235° |
| 2026-05-06 07:47 | 68.79083 | 32.73536 | 268 ft | 16 kts | 155° |
| 2026-05-06 07:47 | 68.78969 | 32.73737 | 267 ft | 22 kts | 146° |
| 2026-05-06 07:47 | 68.78831 | 32.73987 | 269 ft | 24 kts | 147° |
| 2026-05-06 07:47 | 68.78690 | 32.74252 | 271 ft | 27 kts | 146° |
| 2026-05-06 07:48 | 68.78524 | 32.74561 | 269 ft | 30 kts | 146° |
| 2026-05-06 07:48 | 68.78379 | 32.74825 | 271 ft | 21 kts | 145° |
| 2026-05-06 07:48 | 68.78301 | 32.74990 | 273 ft | 11 kts | 125° |
| 2026-05-06 07:48 | 68.78322 | 32.75182 | 271 ft | 11 kts | 56° |
| 2026-05-06 07:49 | 68.78349 | 32.75291 | 271 ft | 1 kts | 56° |
| 2026-05-06 07:49 | 68.78350 | 32.75295 | 271 ft | 0 kts | 56° |
| 2026-05-06 07:50 | 68.78358 | 32.75326 | 271 ft | 7 kts | 55° |
| 2026-05-06 07:50 | 68.78398 | 32.75489 | 271 ft | 8 kts | 57° |
| 2026-05-06 07:50 | 68.78404 | 32.75596 | 271 ft | 5 kts | 108° |
| 2026-05-06 07:51 | 68.78386 | 32.75643 | 271 ft | 1 kts | 144° |
| 2026-05-06 07:51 | 68.78378 | 32.75658 | 271 ft | 0 kts | 145° |
| 2026-05-06 07:51 | 68.78374 | 32.75665 | 271 ft | 0 kts | 145° |